Time;durP1;ratioP1;P1;durP2;ratioP2;P2;SDS_P1;SDS_P2;PMS_P1;PMS_P2;Temp;Humidity;BMP_temperature;BMP_pressure;BME280_temperature;BME280_humidity;BME280_pressure;Samples;Min_cycle;Max_cycle;Signal;HPM_P1;HPM_P2
2022/06/07 00:03:53;;;;;;;2.90;1.38;;;19.70;69.30;;;;;;10399418;28;20466;-63
2022/06/07 00:08:54;;;;;;;0.93;0.70;;;19.70;69.20;;;;;;10412578;28;20405;-63
2022/06/07 00:13:55;;;;;;;3.47;1.40;;;19.70;69.30;;;;;;10415750;28;20030;-63
2022/06/07 00:18:55;;;;;;;2.25;1.15;;;19.70;69.40;;;;;;10415945;28;20038;-63
2022/06/07 00:23:59;;;;;;;2.35;1.52;;;19.70;69.30;;;;;;10415335;28;20021;-63
2022/06/07 00:29:00;;;;;;;1.65;0.98;;;19.70;69.30;;;;;;10414740;28;20128;-63
2022/06/07 00:34:04;;;;;;;3.10;1.67;;;19.70;69.40;;;;;;10414738;28;20057;-63
2022/06/07 00:39:05;;;;;;;2.53;1.08;;;19.70;69.40;;;;;;10414570;28;20363;-63
2022/06/07 00:44:30;;;;;;;2.90;1.02;;;19.70;69.40;;;;;;10414496;28;20470;-63
2022/06/07 00:49:46;;;;;;;3.03;1.40;;;19.60;69.30;;;;;;10415426;28;20045;-63
2022/06/07 00:54:48;;;;;;;2.45;1.58;;;19.70;72.70;;;;;;10415020;28;20087;-63
2022/06/07 00:59:52;;;;;;;3.08;1.55;;;19.80;74.10;;;;;;10417832;28;20029;-63
2022/06/07 01:04:53;;;;;;;2.00;1.48;;;19.80;73.40;;;;;;10413848;28;20045;-63
2022/06/07 01:15:13;;;;;;;3.15;1.60;;;19.80;72.90;;;;;;10414766;28;20053;-63
2022/06/07 01:20:14;;;;;;;3.33;1.80;;;19.80;72.70;;;;;;10412862;28;20030;-63
2022/06/07 01:25:15;;;;;;;2.85;1.20;;;19.80;72.60;;;;;;10412678;28;20048;-63
2022/06/07 01:30:16;;;;;;;2.95;1.83;;;19.70;72.40;;;;;;10398698;28;20470;-63
2022/06/07 01:35:17;;;;;;;2.22;1.60;;;19.70;72.30;;;;;;10412235;28;20133;-63
2022/06/07 01:45:37;;;;;;;2.60;1.80;;;19.70;72.10;;;;;;10413312;28;20072;-64
2022/06/07 01:50:37;;;;;;;2.10;1.35;;;19.70;72.00;;;;;;10412357;28;20105;-63
2022/06/07 01:55:38;;;;;;;3.10;1.73;;;19.70;72.00;;;;;;10416361;28;20124;-63
2022/06/07 02:00:39;;;;;;;2.33;1.60;;;19.70;71.80;;;;;;10401735;28;20167;-64
2022/06/07 02:05:39;;;;;;;4.10;1.70;;;19.70;71.80;;;;;;10412832;28;20128;-64
2022/06/07 02:10:40;;;;;;;1.88;1.23;;;19.70;71.70;;;;;;10413194;28;20109;-64
2022/06/07 02:15:41;;;;;;;1.95;1.45;;;19.70;71.60;;;;;;10412601;28;20040;-63
2022/06/07 02:20:42;;;;;;;3.15;1.42;;;19.70;71.50;;;;;;10412924;28;20076;-64
2022/06/07 02:25:52;;;;;;;3.08;1.90;;;19.70;71.50;;;;;;10394686;28;20049;-64
2022/06/07 02:30:54;;;;;;;4.50;2.22;;;19.70;71.40;;;;;;10411128;28;20116;-63
2022/06/07 02:35:55;;;;;;;2.50;1.50;;;19.60;71.30;;;;;;10410716;28;20045;-64
2022/06/07 02:40:56;;;;;;;1.92;1.65;;;19.70;71.30;;;;;;10415545;28;20025;-64
2022/06/07 02:45:57;;;;;;;2.03;1.40;;;19.70;71.30;;;;;;10418959;28;20549;-64
2022/06/07 02:50:58;;;;;;;2.20;1.52;;;19.60;71.20;;;;;;10406732;28;20370;-64
2022/06/07 02:55:59;;;;;;;4.38;2.28;;;19.60;71.20;;;;;;10425604;28;20033;-64
2022/06/07 03:00:59;;;;;;;7.15;1.73;;;19.60;71.10;;;;;;10419626;28;20038;-63
2022/06/07 03:06:00;;;;;;;2.50;1.42;;;19.60;71.10;;;;;;10418340;28;20037;-64
2022/06/07 03:11:01;;;;;;;2.50;1.55;;;19.60;71.10;;;;;;10417874;28;20029;-64
2022/06/07 03:16:02;;;;;;;1.80;1.30;;;19.60;71.00;;;;;;10419271;28;20029;-64
2022/06/07 03:21:03;;;;;;;2.78;1.60;;;19.60;71.00;;;;;;10417598;28;20116;-63
2022/06/07 03:26:07;;;;;;;2.53;1.55;;;19.60;71.00;;;;;;10417376;28;20026;-63
2022/06/07 03:31:14;;;;;;;2.53;1.73;;;19.60;71.00;;;;;;10417883;28;20099;-64
2022/06/07 03:36:24;;;;;;;2.28;1.60;;;19.50;70.80;;;;;;10416986;28;20494;-64
2022/06/07 03:41:28;;;;;;;1.95;1.48;;;19.60;70.90;;;;;;10416561;28;20044;-65
2022/06/07 03:46:32;;;;;;;2.97;1.52;;;19.50;70.80;;;;;;10397468;28;20367;-64
2022/06/07 03:51:33;;;;;;;3.08;2.03;;;19.50;70.80;;;;;;10400213;28;20029;-64
2022/06/07 03:56:34;;;;;;;2.83;1.80;;;19.50;70.80;;;;;;10421957;28;20032;-64
2022/06/07 04:01:35;;;;;;;3.55;1.75;;;19.50;70.80;;;;;;10417305;28;20037;-64
2022/06/07 04:12:03;;;;;;;3.55;2.13;;;19.50;70.80;;;;;;10416200;28;20041;-64
2022/06/07 04:17:05;;;;;;;4.30;1.77;;;19.50;70.80;;;;;;10415688;28;20061;-64
2022/06/07 04:22:07;;;;;;;2.20;1.73;;;19.50;70.80;;;;;;10414652;28;20060;-64
2022/06/07 04:27:07;;;;;;;2.35;1.55;;;19.50;70.80;;;;;;10415585;28;20075;-64
2022/06/07 04:32:11;;;;;;;3.63;1.58;;;19.50;70.80;;;;;;10414283;28;20057;-64
2022/06/07 04:37:12;;;;;;;2.33;1.83;;;19.50;70.70;;;;;;10408416;28;20095;-64
2022/06/07 04:42:13;;;;;;;2.60;1.83;;;19.50;71.30;;;;;;10413673;28;20163;-65
2022/06/07 04:47:14;;;;;;;6.65;1.90;;;19.50;70.80;;;;;;10416575;28;20038;-61
2022/06/07 04:52:14;;;;;;;3.95;1.75;;;19.60;70.70;;;;;;10410923;28;20045;-64
2022/06/07 04:57:15;;;;;;;8.00;2.40;;;19.60;70.60;;;;;;10412769;28;20140;-64
2022/06/07 05:02:16;;;;;;;7.72;2.67;;;19.70;70.90;;;;;;10414393;28;20038;-63
2022/06/07 05:07:17;;;;;;;12.38;3.08;;;19.70;70.90;;;;;;10413344;28;20147;-62
2022/06/07 05:12:17;;;;;;;9.50;3.13;;;19.70;71.60;;;;;;10412625;28;20044;-68
2022/06/07 05:17:18;;;;;;;16.27;3.15;;;19.70;71.50;;;;;;10414316;28;20116;-62
2022/06/07 05:22:19;;;;;;;11.45;2.75;;;19.80;71.90;;;;;;10413488;28;20112;-62
2022/06/07 05:27:23;;;;;;;13.80;4.03;;;19.80;71.90;;;;;;10428775;28;20125;-61
2022/06/07 05:32:24;;;;;;;13.55;3.25;;;19.80;72.20;;;;;;10410801;28;20406;-63
2022/06/07 05:37:25;;;;;;;10.40;3.30;;;19.80;71.70;;;;;;10394009;28;20036;-62
2022/06/07 05:42:25;;;;;;;9.85;3.65;;;19.70;71.40;;;;;;10412565;28;20025;-63
2022/06/07 05:47:26;;;;;;;8.00;3.08;;;19.70;71.50;;;;;;10412913;28;20034;-64
2022/06/07 05:52:27;;;;;;;14.20;4.20;;;19.60;71.70;;;;;;10397835;28;20036;-61
2022/06/07 05:57:28;;;;;;;9.98;3.47;;;19.60;71.30;;;;;;10398563;28;20481;-61
2022/06/07 06:02:29;;;;;;;11.02;3.50;;;19.60;71.50;;;;;;10400503;28;20104;-61
2022/06/07 06:07:29;;;;;;;18.15;4.00;;;19.60;71.30;;;;;;10411619;28;20040;-61
2022/06/07 06:12:31;;;;;;;9.98;3.63;;;19.50;71.40;;;;;;10400054;28;20038;-61
2022/06/07 06:17:32;;;;;;;16.15;3.30;;;19.60;71.40;;;;;;10419197;28;20044;-59
2022/06/07 06:22:34;;;;;;;12.65;4.80;;;19.60;71.40;;;;;;10419673;28;20026;-64
2022/06/07 06:27:35;;;;;;;13.02;4.47;;;19.60;71.30;;;;;;10421194;28;20029;-63
2022/06/07 06:32:36;;;;;;;11.73;4.47;;;19.50;71.20;;;;;;10419032;28;20505;-63
2022/06/07 06:37:38;;;;;;;10.75;4.35;;;19.50;71.20;;;;;;10419612;28;20041;-62
2022/06/07 06:42:38;;;;;;;14.40;3.88;;;19.50;71.20;;;;;;10416433;28;20049;-62
2022/06/07 06:47:39;;;;;;;11.80;4.72;;;19.50;71.20;;;;;;10419508;28;20037;-64
2022/06/07 06:52:40;;;;;;;11.38;4.22;;;19.50;71.20;;;;;;10419639;28;20120;-62
2022/06/07 06:57:41;;;;;;;10.23;4.20;;;19.60;71.50;;;;;;10423960;28;20156;-62
2022/06/07 07:02:43;;;;;;;8.88;4.28;;;19.50;71.60;;;;;;10417439;28;20232;-62
2022/06/07 07:07:46;;;;;;;9.65;4.70;;;19.50;71.40;;;;;;10419647;28;20090;-62
2022/06/07 07:12:47;;;;;;;10.25;4.00;;;19.50;71.40;;;;;;10417904;28;20041;-62
2022/06/07 07:17:48;;;;;;;8.45;3.85;;;19.50;71.60;;;;;;10415454;28;20037;-64
2022/06/07 07:22:49;;;;;;;6.38;3.75;;;19.50;71.60;;;;;;10416855;28;20029;-62
2022/06/07 07:27:50;;;;;;;8.45;4.18;;;19.50;71.50;;;;;;10415774;28;20076;-62
2022/06/07 07:32:51;;;;;;;7.38;3.67;;;19.50;71.40;;;;;;10415399;28;20140;-62
2022/06/07 07:37:52;;;;;;;5.95;3.50;;;19.50;71.50;;;;;;10414454;28;20116;-62
2022/06/07 07:42:53;;;;;;;7.60;3.40;;;19.50;71.50;;;;;;10417847;28;20026;-62
2022/06/07 07:47:53;;;;;;;6.43;3.03;;;19.50;71.40;;;;;;10415781;28;20539;-62
2022/06/07 07:52:58;;;;;;;6.50;3.70;;;19.50;71.30;;;;;;10417934;28;20525;-62
2022/06/07 07:57:58;;;;;;;8.10;3.50;;;19.50;71.40;;;;;;10421978;28;20618;-62
2022/06/07 08:02:59;;;;;;;7.10;3.47;;;19.50;71.30;;;;;;10399329;28;20116;-62
2022/06/07 08:08:00;;;;;;;7.50;3.47;;;19.50;71.30;;;;;;10415015;28;20128;-63
2022/06/07 08:13:01;;;;;;;7.75;3.28;;;19.50;71.30;;;;;;10415658;28;20052;-62
2022/06/07 08:18:04;;;;;;;7.07;4.97;;;19.50;71.20;;;;;;10416727;28;20033;-62
2022/06/07 08:23:07;;;;;;;10.85;3.72;;;19.50;71.20;;;;;;10398764;28;20141;-62
2022/06/07 08:28:08;;;;;;;4.65;3.40;;;19.50;71.10;;;;;;10414844;28;20152;-62
2022/06/07 08:38:28;;;;;;;5.40;3.85;;;19.50;71.00;;;;;;10415020;28;20046;-64
2022/06/07 08:43:29;;;;;;;4.05;2.80;;;19.50;71.10;;;;;;10398033;28;20378;-62
2022/06/07 08:48:32;;;;;;;9.52;3.83;;;19.50;70.80;;;;;;10396997;28;20477;-62
2022/06/07 08:53:41;;;;;;;3.30;2.55;;;19.50;70.90;;;;;;10413135;28;20118;-62
2022/06/07 08:58:49;;;;;;;6.22;3.40;;;19.50;70.80;;;;;;10413092;28;20115;-63
2022/06/07 09:04:14;;;;;;;3.25;2.65;;;19.50;72.80;;;;;;10411057;28;20033;-62
2022/06/07 09:09:21;;;;;;;4.53;3.50;;;19.50;71.80;;;;;;10411427;28;20034;-62
2022/06/07 09:14:39;;;;;;;6.50;3.38;;;19.50;71.70;;;;;;10414843;28;20030;-61
2022/06/07 09:19:40;;;;;;;4.25;3.03;;;19.50;71.30;;;;;;10413246;28;20446;-62
2022/06/07 09:24:51;;;;;;;4.65;3.20;;;19.50;71.30;;;;;;10403759;28;20038;-63
2022/06/07 09:30:05;;;;;;;4.22;2.95;;;19.50;71.60;;;;;;10409668;28;20498;-64
2022/06/07 09:35:15;;;;;;;7.45;3.92;;;19.50;71.70;;;;;;10409264;28;20061;-69
2022/06/07 09:40:29;;;;;;;4.28;3.28;;;19.60;71.90;;;;;;10411531;28;20037;-71
2022/06/07 09:45:51;;;;;;;4.95;3.17;;;19.60;71.60;;;;;;10410279;28;20029;-73
2022/06/07 09:51:07;;;;;;;6.10;2.97;;;19.60;71.60;;;;;;10398003;28;20108;-64
2022/06/07 09:56:19;;;;;;;5.28;3.15;;;19.50;71.50;;;;;;10418440;28;20076;-64
2022/06/07 10:01:28;;;;;;;5.70;3.83;;;19.60;71.60;;;;;;10391371;28;20199;-64
2022/06/07 10:06:35;;;;;;;5.63;3.20;;;19.60;71.60;;;;;;10410546;28;20037;-64
2022/06/07 10:12:26;;;;;;;4.85;3.50;;;19.60;71.30;;;;;;10410522;28;20037;-63
2022/06/07 10:17:54;;;;;;;9.25;3.05;;;19.60;71.10;;;;;;10411548;28;20398;-63
2022/06/07 10:23:14;;;;;;;7.53;3.08;;;19.60;71.40;;;;;;10411578;28;20033;-63
2022/06/07 10:28:23;;;;;;;4.90;2.95;;;19.60;71.50;;;;;;10410386;28;20026;-64
2022/06/07 10:33:31;;;;;;;;;;;19.60;71.30;;;;;;10408833;28;20053;-63
2022/06/07 10:38:45;;;;;;;7.07;3.38;;;19.60;72.10;;;;;;10410920;28;19917;-63
2022/06/07 10:44:09;;;;;;;6.75;3.70;;;19.60;71.30;;;;;;10412034;28;20034;-63
2022/06/07 10:49:32;;;;;;;6.03;3.20;;;19.60;71.20;;;;;;10396292;28;20390;-63
2022/06/07 10:55:04;;;;;;;6.13;3.05;;;19.60;71.30;;;;;;10410686;28;20455;-64
2022/06/07 11:00:57;;;;;;;5.40;3.30;;;19.60;71.50;;;;;;10384248;28;20091;-66
2022/06/07 11:11:41;;;;;;;4.72;3.83;;;19.60;71.40;;;;;;10418756;28;20124;-64
2022/06/07 11:17:12;;;;;;;5.43;3.50;;;19.50;71.40;;;;;;10417950;28;20121;-64
2022/06/07 11:22:18;;;;;;;5.78;3.67;;;19.60;71.40;;;;;;10417647;28;20045;-64
2022/06/07 11:27:22;;;;;;;6.22;3.35;;;19.60;71.40;;;;;;10417528;28;20115;-64
2022/06/07 11:32:50;;;;;;;4.68;2.88;;;19.60;71.00;;;;;;10416981;28;20114;-64
2022/06/07 11:37:53;;;;;;;6.53;3.35;;;19.70;70.90;;;;;;10416970;28;20528;-66
2022/06/07 11:42:54;;;;;;;3.90;2.55;;;19.70;70.90;;;;;;10417617;28;20041;-66
2022/06/07 11:48:14;;;;;;;4.15;3.25;;;19.70;70.80;;;;;;10414863;28;20116;-66
2022/06/07 11:53:34;;;;;;;5.05;3.55;;;19.70;70.70;;;;;;10422974;28;20036;-65
2022/06/07 11:59:16;;;;;;;5.35;3.10;;;19.70;70.60;;;;;;10414301;28;20108;-65
2022/06/07 12:04:40;;;;;;;3.72;3.05;;;19.70;70.60;;;;;;10390476;28;20051;-67
2022/06/07 12:09:51;;;;;;;5.05;3.22;;;19.70;70.60;;;;;;10432331;28;20036;-66
2022/06/07 12:15:08;;;;;;;4.20;3.17;;;19.80;70.60;;;;;;10414708;28;20038;-66
2022/06/07 12:20:24;;;;;;;5.82;3.20;;;19.80;70.60;;;;;;10415675;28;20057;-66
2022/06/07 12:25:25;;;;;;;4.28;2.83;;;19.80;70.60;;;;;;10415323;28;20084;-66
2022/06/07 12:30:36;;;;;;;7.60;3.00;;;19.80;70.60;;;;;;10415876;28;20467;-67
2022/06/07 12:35:47;;;;;;;7.38;3.60;;;19.80;70.50;;;;;;10413659;28;20045;-65
2022/06/07 12:40:59;;;;;;;6.53;4.00;;;19.80;70.30;;;;;;10414012;28;20128;-69
2022/06/07 12:46:17;;;;;;;4.20;3.05;;;19.90;70.30;;;;;;10411714;28;20057;-68
2022/06/07 12:51:30;;;;;;;7.47;3.75;;;19.90;70.40;;;;;;10402314;28;20471;-67
2022/06/07 12:56:39;;;;;;;4.80;3.33;;;19.90;70.30;;;;;;10419490;28;20099;-66
2022/06/07 13:01:41;;;;;;;6.57;3.85;;;19.90;70.10;;;;;;10413928;28;20083;-66
2022/06/07 13:07:21;;;;;;;4.82;3.53;;;19.90;71.00;;;;;;10396007;28;20029;-64
2022/06/07 13:12:33;;;;;;;5.43;3.13;;;19.90;70.40;;;;;;10428190;28;20037;-64
2022/06/07 13:17:39;;;;;;;12.07;4.07;;;19.80;69.80;;;;;;10410844;28;20037;-65
2022/06/07 13:22:45;;;;;;;15.93;4.93;;;19.90;69.90;;;;;;10397717;28;20041;-66
2022/06/07 13:28:01;;;;;;;10.45;4.80;;;19.90;71.00;;;;;;10408142;28;20036;-65
2022/06/07 13:33:07;;;;;;;8.23;4.45;;;20.00;71.00;;;;;;10395919;28;20140;-59
2022/06/07 13:38:31;;;;;;;8.57;4.10;;;20.00;69.60;;;;;;10412829;28;20060;-58
2022/06/07 13:43:50;;;;;;;10.30;4.85;;;20.00;69.70;;;;;;10409972;28;20041;-59
2022/06/07 13:54:25;;;;;;;6.55;4.10;;;19.90;70.20;;;;;;10406369;28;19917;-58
2022/06/07 13:59:26;;;;;;;7.72;4.72;;;19.90;70.00;;;;;;10414290;28;20448;-59
2022/06/07 14:04:32;;;;;;;7.18;3.80;;;20.00;70.50;;;;;;10405430;28;20229;-60
2022/06/07 14:09:33;;;;;;;6.20;4.47;;;20.00;69.70;;;;;;10404421;28;20393;-59
2022/06/07 14:14:35;;;;;;;5.40;4.28;;;20.00;69.80;;;;;;10409362;28;20033;-59
2022/06/07 14:19:47;;;;;;;9.00;4.80;;;20.00;69.80;;;;;;10411189;28;20575;-59
2022/06/07 14:24:49;;;;;;;6.03;4.00;;;20.00;69.90;;;;;;10410087;28;20043;-59
2022/06/07 14:29:50;;;;;;;8.52;3.53;;;19.90;69.90;;;;;;10408875;28;20030;-59
2022/06/07 14:34:53;;;;;;;6.40;3.85;;;20.00;69.90;;;;;;10408889;28;20038;-59
2022/06/07 14:39:54;;;;;;;5.72;3.65;;;20.00;69.90;;;;;;10417403;28;20120;-59
2022/06/07 14:44:55;;;;;;;6.72;4.03;;;19.90;70.00;;;;;;10418856;28;20504;-60
2022/06/07 14:49:56;;;;;;;5.80;3.65;;;19.90;70.00;;;;;;10406139;28;20036;-59
2022/06/07 14:54:57;;;;;;;4.85;3.67;;;19.90;70.10;;;;;;10417432;28;20084;-59
2022/06/07 14:59:58;;;;;;;7.32;4.15;;;20.00;70.00;;;;;;10424698;28;20722;-60
2022/06/07 15:05:24;;;;;;;6.43;4.82;;;20.00;69.90;;;;;;10417764;28;20486;-59
2022/06/07 15:10:30;;;;;;;8.18;3.33;;;19.90;69.80;;;;;;10411654;28;20036;-60
2022/06/07 15:15:31;;;;;;;8.40;5.40;;;19.90;69.90;;;;;;10415895;28;20114;-59
2022/06/07 15:20:37;;;;;;;10.10;4.65;;;20.00;70.00;;;;;;10417522;28;20040;-59
2022/06/07 15:25:38;;;;;;;8.05;5.60;;;20.00;69.70;;;;;;10417275;28;20119;-58
2022/06/07 15:30:40;;;;;;;6.97;4.88;;;20.10;69.60;;;;;;10416893;28;20470;-56
2022/06/07 15:35:45;;;;;;;9.82;4.80;;;20.10;69.70;;;;;;10415789;28;20133;-59
2022/06/07 15:40:47;;;;;;;7.78;4.63;;;20.10;69.40;;;;;;10407005;28;20040;-58
2022/06/07 15:45:50;;;;;;;17.65;6.65;;;20.00;70.00;;;;;;10409747;28;20040;-58
2022/06/07 15:50:59;;;;;;;16.08;5.95;;;20.10;70.10;;;;;;10402486;28;20034;-60
2022/06/07 15:56:06;;;;;;;13.93;5.63;;;20.10;70.20;;;;;;10412402;28;20517;-59
2022/06/07 16:01:08;;;;;;;16.63;5.55;;;20.00;70.30;;;;;;10403770;28;20048;-61
2022/06/07 16:06:09;;;;;;;12.63;5.25;;;20.10;70.60;;;;;;10399590;28;20045;-61
2022/06/07 16:11:10;;;;;;;10.50;5.45;;;20.20;71.10;;;;;;10380341;28;20372;-60
2022/06/07 16:16:11;;;;;;;14.63;5.78;;;20.40;72.50;;;;;;10409147;28;20037;-58
2022/06/07 16:21:12;;;;;;;13.02;5.88;;;20.50;72.00;;;;;;10414364;28;20223;-58
2022/06/07 16:26:14;;;;;;;17.52;6.40;;;20.50;71.80;;;;;;10414415;28;20087;-56
2022/06/07 16:36:36;;;;;;;16.15;6.55;;;20.50;71.60;;;;;;10414982;28;20038;-56
2022/06/07 16:41:37;;;;;;;20.48;5.72;;;20.50;71.80;;;;;;10415663;28;20033;-57
2022/06/07 16:46:46;;;;;;;19.33;5.70;;;20.60;71.30;;;;;;10410751;28;20033;-58
2022/06/07 16:51:48;;;;;;;15.65;6.40;;;20.60;70.40;;;;;;10414598;28;20083;-56
2022/06/07 16:56:51;;;;;;;21.10;5.82;;;20.50;70.80;;;;;;10418213;28;20117;-58
2022/06/07 17:01:52;;;;;;;18.00;6.88;;;20.40;71.00;;;;;;10410084;28;20518;-58
2022/06/07 17:06:53;;;;;;;15.50;6.47;;;20.30;71.20;;;;;;10413281;28;20029;-57
2022/06/07 17:11:54;;;;;;;14.65;5.25;;;20.30;71.50;;;;;;10412698;28;20033;-56
2022/06/07 17:16:55;;;;;;;22.98;6.25;;;20.30;71.60;;;;;;10413776;28;20473;-57
2022/06/07 17:21:55;;;;;;;21.02;5.68;;;20.30;71.20;;;;;;10413812;28;20036;-57
2022/06/07 17:26:56;;;;;;;15.88;5.25;;;20.30;71.20;;;;;;10413508;28;20050;-57
2022/06/07 17:31:57;;;;;;;10.93;5.88;;;20.30;71.00;;;;;;10413475;28;20042;-58
2022/06/07 17:36:58;;;;;;;17.33;4.88;;;20.30;70.90;;;;;;10428881;28;20037;-57
2022/06/07 17:41:59;;;;;;;10.95;7.35;;;20.30;70.80;;;;;;10409970;28;20032;-57
2022/06/07 17:47:00;;;;;;;12.07;6.18;;;20.30;71.40;;;;;;10412467;28;20599;-57
2022/06/07 17:52:03;;;;;;;9.90;5.68;;;20.40;70.50;;;;;;10411012;28;20132;-56
2022/06/07 17:57:05;;;;;;;12.82;6.28;;;20.30;70.40;;;;;;10418068;28;20037;-57
2022/06/07 18:02:06;;;;;;;9.98;4.45;;;20.30;70.80;;;;;;10410599;28;20367;-57
2022/06/07 18:07:07;;;;;;;10.27;6.18;;;20.30;71.40;;;;;;10409176;28;20604;-57
2022/06/07 18:12:08;;;;;;;11.02;5.85;;;20.30;70.40;;;;;;10410990;28;20456;-58
2022/06/07 18:17:09;;;;;;;16.35;6.32;;;20.40;70.80;;;;;;10411364;28;20390;-56
2022/06/07 18:22:17;;;;;;;18.55;5.80;;;20.40;70.30;;;;;;10411022;28;20112;-57
2022/06/07 18:27:18;;;;;;;8.23;5.60;;;20.40;70.20;;;;;;10408958;28;20036;-57
2022/06/07 18:32:23;;;;;;;11.75;5.43;;;20.50;70.30;;;;;;10411655;28;20124;-56
2022/06/07 18:37:24;;;;;;;9.73;6.30;;;20.50;70.50;;;;;;10411761;28;20045;-57
2022/06/07 18:42:25;;;;;;;11.18;6.25;;;20.40;70.70;;;;;;10412134;28;20029;-57
2022/06/07 18:47:27;;;;;;;9.77;4.70;;;20.40;70.60;;;;;;10411190;28;20026;-57
2022/06/07 18:52:28;;;;;;;6.05;4.35;;;20.30;70.80;;;;;;10410861;28;20038;-57
2022/06/07 18:57:29;;;;;;;10.57;5.45;;;20.40;70.80;;;;;;10408774;28;20056;-57
2022/06/07 19:02:30;;;;;;;10.05;4.55;;;20.30;70.90;;;;;;10417704;28;20128;-57
2022/06/07 19:07:31;;;;;;;6.97;4.05;;;20.30;70.80;;;;;;10410455;28;20037;-57
2022/06/07 19:12:36;;;;;;;8.85;4.65;;;20.30;71.50;;;;;;10411644;28;20033;-56
2022/06/07 19:17:37;;;;;;;7.85;4.13;;;20.30;70.90;;;;;;10409616;28;20037;-57
2022/06/07 19:22:40;;;;;;;7.88;5.03;;;20.30;70.80;;;;;;10388835;28;20083;-56
2022/06/07 19:27:45;;;;;;;7.97;5.03;;;20.30;70.90;;;;;;10412945;28;20030;-56
2022/06/07 19:32:46;;;;;;;9.80;4.80;;;20.30;71.20;;;;;;10416882;28;20068;-57
2022/06/07 19:37:47;;;;;;;9.10;5.03;;;20.30;71.20;;;;;;10415833;28;20036;-57
2022/06/07 19:42:49;;;;;;;6.68;4.57;;;20.30;71.20;;;;;;10415413;28;20034;-56
2022/06/07 19:47:51;;;;;;;11.80;4.93;;;20.30;71.20;;;;;;10412075;28;20033;-57
2022/06/07 19:52:51;;;;;;;8.80;4.47;;;20.30;71.20;;;;;;10416683;28;20113;-57
2022/06/07 19:57:54;;;;;;;8.68;4.53;;;20.30;71.30;;;;;;10414459;28;20037;-57
2022/06/07 20:03:01;;;;;;;5.93;4.05;;;20.30;71.20;;;;;;10414603;28;20029;-57
2022/06/07 20:08:05;;;;;;;6.43;5.05;;;20.30;71.20;;;;;;10416336;28;20041;-57
2022/06/07 20:13:06;;;;;;;8.15;4.40;;;20.30;71.10;;;;;;10416711;28;20034;-56
2022/06/07 20:18:08;;;;;;;7.35;4.30;;;20.30;70.90;;;;;;10416740;28;20041;-57
2022/06/07 20:23:09;;;;;;;6.63;4.15;;;20.30;70.80;;;;;;10416615;28;20053;-56
2022/06/07 20:28:11;;;;;;;7.65;4.30;;;20.30;70.70;;;;;;10416627;28;20178;-57
2022/06/07 20:33:13;;;;;;;7.85;4.13;;;20.30;70.70;;;;;;10413867;28;20041;-56
2022/06/07 20:38:16;;;;;;;7.13;3.72;;;20.30;70.60;;;;;;10414723;28;20033;-57
2022/06/07 20:43:17;;;;;;;5.43;3.90;;;20.30;70.60;;;;;;10415554;28;20109;-57
2022/06/07 20:48:19;;;;;;;5.88;3.75;;;20.30;70.60;;;;;;10415812;28;20450;-57
2022/06/07 20:53:22;;;;;;;7.45;3.65;;;20.30;70.50;;;;;;10414808;28;20120;-57
2022/06/07 20:58:23;;;;;;;5.47;4.35;;;20.30;70.50;;;;;;10420865;28;20374;-57
2022/06/07 21:03:23;;;;;;;4.18;3.10;;;20.30;70.40;;;;;;10414014;28;20030;-57
2022/06/07 21:08:25;;;;;;;3.85;3.08;;;20.30;70.40;;;;;;10413345;28;20071;-55
2022/06/07 21:13:27;;;;;;;5.45;3.97;;;20.30;70.30;;;;;;10413755;28;20037;-57
2022/06/07 21:18:28;;;;;;;3.97;3.08;;;20.30;70.30;;;;;;10414634;28;20029;-57
2022/06/07 21:23:28;;;;;;;5.43;3.25;;;20.30;70.30;;;;;;10414419;28;20302;-57
2022/06/07 21:28:29;;;;;;;4.35;3.80;;;20.30;70.20;;;;;;10414367;28;20041;-57
2022/06/07 21:33:30;;;;;;;7.30;3.95;;;20.30;70.20;;;;;;10413857;28;20056;-57
2022/06/07 21:38:31;;;;;;;5.47;3.53;;;20.30;70.20;;;;;;10413729;28;20038;-56
2022/06/07 21:43:34;;;;;;;5.75;3.38;;;20.30;70.10;;;;;;10413832;28;20026;-57
2022/06/07 21:48:35;;;;;;;4.30;3.13;;;20.30;70.10;;;;;;10404975;28;20521;-57
2022/06/07 21:53:36;;;;;;;5.05;3.03;;;20.30;70.10;;;;;;10407762;28;20041;-55
2022/06/07 21:58:36;;;;;;;4.88;3.50;;;20.30;70.10;;;;;;10417620;28;20037;-57
2022/06/07 22:03:37;;;;;;;3.70;2.85;;;20.30;70.10;;;;;;10413113;28;20029;-57
2022/06/07 22:08:41;;;;;;;4.93;3.15;;;20.20;70.00;;;;;;10412863;28;20485;-56
2022/06/07 22:13:44;;;;;;;4.22;3.67;;;20.20;70.00;;;;;;10411792;28;20433;-57
2022/06/07 22:18:45;;;;;;;4.82;3.40;;;20.30;70.00;;;;;;10411356;28;20038;-57
2022/06/07 22:23:45;;;;;;;3.42;2.83;;;20.30;69.90;;;;;;10412593;28;20064;-57
2022/06/07 22:34:05;;;;;;;5.63;3.40;;;20.30;69.90;;;;;;10411603;28;20061;-57
2022/06/07 22:39:05;;;;;;;3.47;2.78;;;20.30;69.90;;;;;;10412609;28;20504;-57
2022/06/07 22:44:06;;;;;;;5.32;3.30;;;20.20;69.80;;;;;;10412536;28;20018;-57
2022/06/07 22:49:07;;;;;;;4.95;3.53;;;20.20;69.80;;;;;;10410061;28;20029;-55
2022/06/07 22:54:18;;;;;;;3.80;3.08;;;20.20;69.80;;;;;;10412284;28;20655;-57
2022/06/07 22:59:30;;;;;;;5.93;3.78;;;20.20;69.80;;;;;;10423256;28;20052;-57
2022/06/07 23:04:49;;;;;;;4.30;3.40;;;20.20;69.70;;;;;;10419663;28;20060;-57
2022/06/07 23:09:50;;;;;;;4.50;3.60;;;20.20;69.70;;;;;;10418451;28;20493;-57
2022/06/07 23:20:10;;;;;;;6.35;3.20;;;20.20;69.60;;;;;;10419065;28;20401;-56
2022/06/07 23:25:11;;;;;;;6.57;3.80;;;20.20;69.60;;;;;;10417831;28;20124;-56
2022/06/07 23:30:12;;;;;;;4.68;3.25;;;20.20;69.70;;;;;;10418796;28;20025;-57
2022/06/07 23:35:14;;;;;;;4.68;3.65;;;20.20;69.60;;;;;;10418617;28;20477;-57
2022/06/07 23:40:21;;;;;;;4.47;3.20;;;20.20;69.60;;;;;;10417535;28;20541;-57
2022/06/07 23:45:23;;;;;;;5.70;3.75;;;20.20;69.60;;;;;;10418338;28;20049;-57
2022/06/07 23:50:30;;;;;;;4.55;3.53;;;20.20;69.60;;;;;;10417204;28;20039;-57
2022/06/07 23:55:31;;;;;;;4.85;4.15;;;20.20;69.50;;;;;;10421517;28;20032;-57
